Time,TemperatureF,DewpointF,PressureIn,WindDirection,WindDirectionDegrees,WindSpeedMPH,WindSpeedGustMPH,Humidity,HourlyPrecipIn,Conditions,Clouds,dailyrainin,SoftwareType,DateUTC
2013-01-27 00:22:00,18.0,-99.9,30.37,SSE,165,8.0,12.0,-999,-99.99,,,-99.99,,2013-01-27 05:22:00,
2013-01-27 00:52:00,19.0,-99.9,30.37,South,173,13.0,15.0,-999,-99.99,,,-99.99,,2013-01-27 05:52:00,
2013-01-27 01:52:00,19.0,-99.9,30.37,South,174,13.0,15.0,-999,-99.99,,,-99.99,,2013-01-27 06:52:00,
2013-01-27 02:22:00,19.0,-99.9,30.37,South,173,10.0,11.0,-999,-99.99,,,-99.99,,2013-01-27 07:22:00,
2013-01-27 03:22:00,20.0,-99.9,30.37,South,181,14.0,17.0,-999,-99.99,,,-99.99,,2013-01-27 08:22:00,
2013-01-27 03:52:00,20.0,-99.9,30.35,South,176,14.0,17.0,-999,-99.99,,,-99.99,,2013-01-27 08:52:00,
2013-01-27 04:11:00,20.0,-99.9,30.36,South,183,12.0,14.0,-999,-99.99,,,-99.99,,2013-01-27 09:11:00,
2013-01-27 04:52:00,20.0,-99.9,30.35,South,177,11.0,15.0,-999,-99.99,,,-99.99,,2013-01-27 09:52:00,
2013-01-27 05:21:00,20.0,-99.9,30.35,South,183,11.0,12.0,-999,-99.99,,,-99.99,,2013-01-27 10:21:00,
2013-01-27 05:52:00,20.0,-99.9,30.35,South,181,11.0,13.0,-999,-99.99,,,-99.99,,2013-01-27 10:52:00,
2013-01-27 06:22:00,20.0,-99.9,30.34,South,171,11.0,14.0,-999,-99.99,,,-99.99,,2013-01-27 11:22:00,
2013-01-27 06:52:00,21.0,-99.9,30.33,South,170,9.0,12.0,-999,-99.99,,,-99.99,,2013-01-27 11:52:00,
2013-01-27 07:22:00,21.0,-99.9,30.33,South,175,11.0,14.0,-999,-99.99,,,-99.99,,2013-01-27 12:22:00,
2013-01-27 08:22:00,22.0,-99.9,30.32,South,173,13.0,15.0,-999,-99.99,,,-99.99,,2013-01-27 13:22:00,
2013-01-27 08:52:00,23.0,-99.9,30.32,South,177,13.0,17.0,-999,-99.99,,,-99.99,,2013-01-27 13:52:00,
2013-01-27 09:12:00,23.0,-99.9,30.32,SSE,164,13.0,16.0,-999,-99.99,,,-99.99,,2013-01-27 14:12:00,
2013-01-27 09:53:00,24.0,-99.9,30.31,SSE,164,12.0,16.0,-999,-99.99,,,-99.99,,2013-01-27 14:53:00,
2013-01-27 10:22:00,24.0,-99.9,30.31,SSE,164,10.0,15.0,-999,-99.99,,,-99.99,,2013-01-27 15:22:00,
2013-01-27 10:43:00,24.0,-99.9,30.31,SSE,161,10.0,15.0,-999,-99.99,,,-99.99,,2013-01-27 15:43:00,
2013-01-27 11:22:00,25.0,-99.9,30.31,SSE,166,15.0,18.0,-999,-99.99,,,-99.99,,2013-01-27 16:22:00,
2013-01-27 11:53:00,26.0,-99.9,30.31,South,179,12.0,17.0,-999,-99.99,,,-99.99,,2013-01-27 16:53:00,
2013-01-27 12:22:00,26.0,-99.9,30.30,South,185,14.0,18.0,-999,-99.99,,,-99.99,,2013-01-27 17:22:00,
2013-01-27 13:23:00,28.0,-99.9,30.29,SSW,194,12.0,15.0,-999,-99.99,,,-99.99,,2013-01-27 18:23:00,
2013-01-27 13:53:00,29.0,-99.9,30.27,SSW,194,13.0,17.0,-999,-99.99,,,-99.99,,2013-01-27 18:53:00,
2013-01-27 14:12:00,29.0,-99.9,30.26,South,184,13.0,16.0,-999,-99.99,,,-99.99,,2013-01-27 19:12:00,
2013-01-27 14:52:00,30.0,-99.9,30.24,SSW,193,13.0,16.0,-999,-99.99,,,-99.99,,2013-01-27 19:52:00,
2013-01-27 15:22:00,30.0,-99.9,30.22,South,189,10.0,12.0,-999,-99.99,,,-99.99,,2013-01-27 20:22:00,
2013-01-27 15:52:00,30.0,-99.9,30.22,South,179,10.0,14.0,-999,-99.99,,,-99.99,,2013-01-27 20:52:00,
2013-01-27 16:23:00,30.0,-99.9,30.22,South,185,11.0,15.0,-999,-99.99,,,-99.99,,2013-01-27 21:23:00,
2013-01-27 16:52:00,28.0,-99.9,30.21,SSE,156,6.0,11.0,-999,-99.99,,,-99.99,,2013-01-27 21:52:00,
2013-01-27 17:22:00,28.0,-99.9,30.21,SSE,157,6.0,8.0,-999,-99.99,,,-99.99,,2013-01-27 22:22:00,
2013-01-27 18:22:00,28.0,-99.9,30.21,SE,130,4.0,6.0,-999,-99.99,,,-99.99,,2013-01-27 23:22:00,
2013-01-27 18:53:00,26.0,-99.9,30.21,ESE,112,6.0,7.0,-999,-99.99,,,-99.99,,2013-01-27 23:53:00,
2013-01-27 19:52:00,28.0,-99.9,30.19,SE,140,5.0,7.0,-999,-99.99,,,-99.99,,2013-01-28 00:52:00,
2013-01-27 20:22:00,28.0,-99.9,30.19,SSE,147,7.0,9.0,-999,-99.99,,,-99.99,,2013-01-28 01:22:00,
2013-01-27 20:43:00,28.0,-99.9,30.19,SE,142,5.0,7.0,-999,-99.99,,,-99.99,,2013-01-28 01:43:00,
2013-01-27 21:22:00,27.0,-99.9,30.18,SE,145,8.0,10.0,-999,-99.99,,,-99.99,,2013-01-28 02:22:00,
2013-01-27 21:53:00,27.0,-99.9,30.16,ESE,111,10.0,11.0,-999,-99.99,,,-99.99,,2013-01-28 02:53:00,
2013-01-27 22:12:00,27.0,-99.9,30.15,ESE,115,12.0,13.0,-999,-99.99,,,-99.99,,2013-01-28 03:12:00,
2013-01-27 22:53:00,27.0,-99.9,30.13,ESE,114,14.0,16.0,-999,-99.99,,,-99.99,,2013-01-28 03:53:00,
2013-01-27 23:22:00,27.0,-99.9,30.11,ESE,118,16.0,19.0,-999,-99.99,,,-99.99,,2013-01-28 04:22:00,
2013-01-27 23:52:00,27.0,-99.9,30.09,ESE,119,16.0,19.0,-999,-99.99,,,-99.99,,2013-01-28 04:52:00,